Time;durP1;ratioP1;P1;durP2;ratioP2;P2;SDS_P1;SDS_P2;PMS_P1;PMS_P2;Temp;Humidity;BMP_temperature;BMP_pressure;BME280_temperature;BME280_humidity;BME280_pressure;Samples;Min_cycle;Max_cycle;Signal;HPM_P1;HPM_P2
2022/12/19 00:01:46;;;;;;;20.50;8.98;;;2.50;91.10;;;;;;5012782;28;20117;-73
2022/12/19 00:04:14;;;;;;;16.27;7.60;;;2.50;91.20;;;;;;5013365;28;20112;-71
2022/12/19 00:06:40;;;;;;;24.35;8.75;;;2.50;91.30;;;;;;5013291;28;20045;-72
2022/12/19 00:09:06;;;;;;;20.17;9.00;;;2.50;91.30;;;;;;5013295;28;20057;-72
2022/12/19 00:11:32;;;;;;;18.08;8.00;;;2.40;91.40;;;;;;5013051;28;20049;-72
2022/12/19 00:13:58;;;;;;;18.98;8.18;;;2.40;91.50;;;;;;5013326;28;20516;-72
2022/12/19 00:16:27;;;;;;;21.38;9.65;;;2.50;91.50;;;;;;5013094;28;20482;-71
2022/12/19 00:18:54;;;;;;;20.00;7.95;;;2.70;91.50;;;;;;5012971;28;20022;-72
2022/12/19 00:21:22;;;;;;;23.20;8.73;;;2.50;91.50;;;;;;5013155;28;20121;-72
2022/12/19 00:23:48;;;;;;;17.70;8.05;;;2.60;91.60;;;;;;5012940;28;20026;-73
2022/12/19 00:26:20;;;;;;;23.98;10.13;;;2.50;91.60;;;;;;5013514;28;20101;-73
2022/12/19 00:28:48;;;;;;;19.00;8.57;;;2.50;91.70;;;;;;5011972;28;20026;-72
2022/12/19 00:31:15;;;;;;;19.00;8.27;;;2.60;91.80;;;;;;5012434;28;20468;-71
2022/12/19 00:33:42;;;;;;;19.23;7.60;;;2.60;92.00;;;;;;5012827;28;20046;-72
2022/12/19 00:36:12;;;;;;;21.13;8.45;;;2.50;92.20;;;;;;5011914;28;20026;-72
2022/12/19 00:38:38;;;;;;;19.23;8.60;;;2.60;92.30;;;;;;5011675;28;20022;-71
2022/12/19 00:41:28;;;;;;;22.60;10.10;;;2.50;92.40;;;;;;5013026;28;20040;-74
2022/12/19 00:43:56;;;;;;;21.40;8.90;;;2.60;92.60;;;;;;5012533;28;20558;-71
2022/12/19 00:46:23;;;;;;;20.08;9.00;;;2.70;92.80;;;;;;5012667;28;20030;-73
2022/12/19 00:48:49;;;;;;;23.52;9.43;;;2.70;92.70;;;;;;5012488;28;20037;-73
2022/12/19 00:51:27;;;;;;;20.42;8.82;;;2.70;92.80;;;;;;5012449;28;20117;-72
2022/12/19 00:53:55;;;;;;;23.05;9.05;;;2.80;92.90;;;;;;5011381;28;20026;-74
2022/12/19 00:56:23;;;;;;;24.38;8.75;;;2.90;93.20;;;;;;5012398;28;20044;-73
2022/12/19 00:58:49;;;;;;;18.55;8.65;;;2.80;93.20;;;;;;5012830;28;20030;-72
2022/12/19 01:01:18;;;;;;;21.35;8.65;;;2.80;93.40;;;;;;5011516;28;20060;-73
2022/12/19 01:03:45;;;;;;;20.60;8.88;;;2.80;93.50;;;;;;5012419;28;20048;-73
2022/12/19 01:06:17;;;;;;;24.40;9.43;;;2.90;93.90;;;;;;5012244;28;20370;-72
2022/12/19 01:08:43;;;;;;;24.88;9.73;;;2.90;94.00;;;;;;5012322;28;20030;-73
2022/12/19 01:11:09;;;;;;;21.58;8.85;;;2.90;94.40;;;;;;5012603;28;20057;-73
2022/12/19 01:13:37;;;;;;;19.67;9.40;;;2.80;94.60;;;;;;5011843;28;20042;-72
2022/12/19 01:16:11;;;;;;;;;;;2.90;94.80;;;;;;5012602;28;20172;-73
2022/12/19 01:18:37;;;;;;;25.17;9.57;;;2.80;95.20;;;;;;5011126;28;20366;-71
2022/12/19 01:21:06;;;;;;;23.27;9.35;;;2.90;95.00;;;;;;5012302;28;20148;-74
2022/12/19 01:23:32;;;;;;;21.58;9.57;;;2.90;94.90;;;;;;5012287;28;20022;-73
2022/12/19 01:25:58;;;;;;;22.88;9.95;;;3.00;94.90;;;;;;5012553;28;20417;-73
2022/12/19 01:28:24;;;;;;;23.65;9.82;;;2.90;95.20;;;;;;5011871;28;20037;-73
2022/12/19 01:30:50;;;;;;;19.23;9.05;;;2.90;95.30;;;;;;5011922;28;20188;-73
2022/12/19 01:33:17;;;;;;;26.15;10.60;;;2.90;95.50;;;;;;5011949;28;20133;-73
2022/12/19 01:35:45;;;;;;;20.83;10.07;;;2.90;95.60;;;;;;5012149;28;20030;-73
2022/12/19 01:38:19;;;;;;;26.77;9.68;;;2.90;95.60;;;;;;5011129;28;20468;-73
2022/12/19 01:40:55;;;;;;;20.33;9.25;;;2.90;95.60;;;;;;5011823;28;20037;-72
2022/12/19 01:43:22;;;;;;;22.52;10.00;;;2.90;95.70;;;;;;5011157;28;20034;-72
2022/12/19 01:45:57;;;;;;;24.58;10.82;;;2.90;95.70;;;;;;5011615;28;20060;-71
2022/12/19 01:48:42;;;;;;;23.05;9.63;;;2.90;95.90;;;;;;5011573;28;20033;-72
2022/12/19 01:51:21;;;;;;;22.02;10.63;;;3.00;95.90;;;;;;5011678;28;20044;-71
2022/12/19 01:53:51;;;;;;;26.88;10.50;;;3.00;96.10;;;;;;5011456;28;20120;-72
2022/12/19 01:56:22;;;;;;;23.98;10.02;;;3.00;96.20;;;;;;5011709;28;20180;-72
2022/12/19 01:58:53;;;;;;;25.40;9.88;;;3.00;96.20;;;;;;5012192;28;20044;-72
2022/12/19 02:01:18;;;;;;;24.45;9.70;;;2.90;96.20;;;;;;5011456;28;20117;-73
2022/12/19 02:03:45;;;;;;;22.25;9.98;;;2.90;96.20;;;;;;5011400;28;20180;-73
2022/12/19 02:06:12;;;;;;;20.33;9.25;;;2.90;96.10;;;;;;5011343;28;20033;-74
2022/12/19 02:08:40;;;;;;;26.00;10.90;;;2.90;96.30;;;;;;5011411;28;20034;-73
2022/12/19 02:11:05;;;;;;;22.55;9.68;;;3.00;96.30;;;;;;5011631;28;20513;-73
2022/12/19 02:13:31;;;;;;;25.40;10.55;;;2.90;96.10;;;;;;5010988;28;20097;-73
2022/12/19 02:16:23;;;;;;;23.65;9.90;;;3.00;96.10;;;;;;5011201;28;20077;-71
2022/12/19 02:18:56;;;;;;;24.40;10.57;;;3.00;96.30;;;;;;5009946;28;20204;-73
2022/12/19 02:21:31;;;;;;;24.67;10.60;;;2.90;96.40;;;;;;5011065;28;20337;-71
2022/12/19 02:24:28;;;;;;;23.73;9.43;;;2.90;96.50;;;;;;5011053;28;20045;-72
2022/12/19 02:27:31;;;;;;;25.17;9.98;;;3.00;96.50;;;;;;5009933;28;20092;-71
2022/12/19 02:30:03;;;;;;;25.50;10.35;;;2.90;96.50;;;;;;5009748;28;20030;-73
2022/12/19 02:32:52;;;;;;;23.63;10.02;;;2.90;96.60;;;;;;5009946;28;20026;-73
2022/12/19 02:35:27;;;;;;;26.00;11.60;;;2.80;96.70;;;;;;5011255;28;20322;-74
2022/12/19 02:38:10;;;;;;;21.13;9.77;;;2.80;96.80;;;;;;5030956;28;20455;-73
2022/12/19 02:40:48;;;;;;;29.80;10.80;;;2.80;96.70;;;;;;5030514;28;20033;-72
2022/12/19 02:43:16;;;;;;;24.45;9.23;;;2.80;96.70;;;;;;5030443;28;20494;-73
2022/12/19 02:45:43;;;;;;;;;;;2.90;96.90;;;;;;5029891;28;20048;-74
2022/12/19 02:48:10;;;;;;;26.48;9.85;;;2.80;96.80;;;;;;5030563;28;19928;-71
2022/12/19 02:50:41;;;;;;;27.65;10.68;;;2.80;96.80;;;;;;5030609;28;20028;-73
2022/12/19 02:53:10;;;;;;;26.88;10.95;;;2.90;96.90;;;;;;5030990;28;20036;-71
2022/12/19 02:55:50;;;;;;;24.13;10.48;;;2.80;96.80;;;;;;5033052;28;20041;-72
2022/12/19 02:58:24;;;;;;;23.10;10.15;;;2.90;96.80;;;;;;5034280;28;20049;-72
2022/12/19 03:01:04;;;;;;;20.77;9.38;;;2.90;96.80;;;;;;5034281;28;20102;-72
2022/12/19 03:04:16;;;;;;;23.05;10.18;;;2.90;96.80;;;;;;5034298;28;20134;-72
2022/12/19 03:06:53;;;;;;;23.80;11.07;;;2.90;96.80;;;;;;5029055;28;20064;-72
2022/12/19 03:09:22;;;;;;;;;;;2.90;96.90;;;;;;5034555;28;20068;-74
2022/12/19 03:11:52;;;;;;;23.67;10.27;;;2.90;96.90;;;;;;5034034;28;19920;-71
2022/12/19 03:14:20;;;;;;;26.70;10.55;;;2.90;96.90;;;;;;5032752;28;20053;-72
2022/12/19 03:16:46;;;;;;;24.20;10.20;;;3.00;96.90;;;;;;5034493;28;20028;-72
2022/12/19 03:19:13;;;;;;;23.60;10.07;;;3.00;96.90;;;;;;5033973;28;20110;-72
2022/12/19 03:21:42;;;;;;;24.08;10.20;;;3.00;96.90;;;;;;5033907;28;20037;-73
2022/12/19 03:24:10;;;;;;;25.45;10.30;;;3.00;97.10;;;;;;5032788;28;20347;-73
2022/12/19 03:26:38;;;;;;;;;;;3.00;97.20;;;;;;5034315;28;20017;-72
2022/12/19 03:29:09;;;;;;;25.15;9.90;;;3.00;97.20;;;;;;5033102;28;19932;-71
2022/12/19 03:31:37;;;;;;;24.00;10.25;;;3.10;97.20;;;;;;5032617;28;20108;-72
2022/12/19 03:34:14;;;;;;;25.88;11.18;;;3.00;97.30;;;;;;5033606;28;20034;-72
2022/12/19 03:36:44;;;;;;;26.37;11.23;;;3.00;97.40;;;;;;5033606;28;20057;-72
2022/12/19 03:39:13;;;;;;;20.90;10.45;;;3.10;97.40;;;;;;5033465;28;20033;-72
2022/12/19 03:44:27;;;;;;;24.85;10.48;;;3.10;97.40;;;;;;5034026;28;20064;-72
2022/12/19 03:47:33;;;;;;;27.63;10.85;;;3.10;97.60;;;;;;5033916;28;20032;-73
2022/12/19 03:49:59;;;;;;;26.17;10.77;;;3.20;97.70;;;;;;5029460;28;20041;-73
2022/12/19 03:52:42;;;;;;;27.13;11.38;;;3.20;97.80;;;;;;5033409;28;20037;-72
2022/12/19 03:55:18;;;;;;;22.58;9.88;;;3.10;97.90;;;;;;5032188;28;20057;-71
2022/12/19 03:57:57;;;;;;;21.33;10.40;;;3.20;98.00;;;;;;5032208;28;20040;-72
2022/12/19 04:00:24;;;;;;;22.05;10.27;;;3.10;97.90;;;;;;5032158;28;20038;-72
2022/12/19 04:02:52;;;;;;;27.83;11.32;;;3.20;98.00;;;;;;5033209;28;20499;-71
2022/12/19 04:05:24;;;;;;;28.55;12.07;;;3.20;98.00;;;;;;5033004;28;20120;-72
2022/12/19 04:07:54;;;;;;;28.52;11.43;;;3.20;97.90;;;;;;5032753;28;20358;-72
2022/12/19 04:10:23;;;;;;;27.88;11.50;;;3.20;98.00;;;;;;5033183;28;20036;-72
2022/12/19 04:13:15;;;;;;;26.38;10.73;;;3.30;98.10;;;;;;5031712;28;20057;-72
2022/12/19 04:15:57;;;;;;;25.90;11.15;;;3.20;98.30;;;;;;5032416;28;20033;-72
2022/12/19 04:18:23;;;;;;;25.55;10.88;;;3.20;98.40;;;;;;5033109;28;20340;-73
2022/12/19 04:21:00;;;;;;;25.13;11.75;;;3.20;98.70;;;;;;5032726;28;20168;-73
2022/12/19 04:23:33;;;;;;;27.30;11.18;;;3.20;98.70;;;;;;5032743;28;20048;-72
2022/12/19 04:26:02;;;;;;;24.15;11.20;;;3.30;98.60;;;;;;5033133;28;20021;-73
2022/12/19 04:28:42;;;;;;;24.73;11.10;;;3.20;98.60;;;;;;5033032;28;20037;-72
2022/12/19 04:31:12;;;;;;;26.92;11.52;;;3.30;98.70;;;;;;5032509;28;20337;-72
2022/12/19 04:33:37;;;;;;;22.80;9.95;;;3.40;98.60;;;;;;5032468;28;20068;-72
2022/12/19 04:36:03;;;;;;;26.15;11.20;;;3.30;98.60;;;;;;5032834;28;20057;-72
2022/12/19 04:38:29;;;;;;;31.13;11.68;;;3.30;98.70;;;;;;5032405;28;20025;-70
2022/12/19 04:40:55;;;;;;;24.25;11.18;;;3.40;98.60;;;;;;5032868;28;20045;-71
2022/12/19 04:43:21;;;;;;;28.50;11.77;;;3.40;98.50;;;;;;5031506;28;20038;-73
2022/12/19 04:45:46;;;;;;;26.88;11.65;;;3.40;98.40;;;;;;5031168;28;20518;-71
2022/12/19 04:48:12;;;;;;;25.73;11.95;;;3.40;98.30;;;;;;5032717;28;20029;-72
2022/12/19 04:50:38;;;;;;;27.02;11.52;;;3.30;98.30;;;;;;5032316;28;20045;-72
2022/12/19 04:53:04;;;;;;;32.47;12.25;;;3.40;98.30;;;;;;5032600;28;20419;-71
2022/12/19 04:55:30;;;;;;;24.95;10.10;;;3.40;98.20;;;;;;5032059;28;20030;-71
2022/12/19 04:57:56;;;;;;;26.58;11.23;;;3.40;98.20;;;;;;5030923;28;20345;-71
2022/12/19 05:00:21;;;;;;;24.10;9.85;;;3.50;98.10;;;;;;5031965;28;20033;-70
2022/12/19 05:02:47;;;;;;;25.48;11.35;;;3.50;98.00;;;;;;5031863;28;20041;-71
2022/12/19 05:05:13;;;;;;;30.50;12.13;;;3.50;98.00;;;;;;5032363;28;20025;-72
2022/12/19 05:07:39;;;;;;;26.80;11.23;;;3.50;98.00;;;;;;5031718;28;20041;-72
2022/12/19 05:10:06;;;;;;;26.52;10.93;;;3.40;98.00;;;;;;5031685;28;20471;-70
2022/12/19 05:12:31;;;;;;;25.70;11.57;;;3.40;98.00;;;;;;5031450;28;20525;-72
2022/12/19 05:14:57;;;;;;;27.55;12.00;;;3.50;98.20;;;;;;5031556;28;20037;-72
2022/12/19 05:17:22;;;;;;;29.83;11.98;;;3.50;98.10;;;;;;5031210;28;20029;-72
2022/12/19 05:19:48;;;;;;;25.15;11.18;;;3.60;98.10;;;;;;5030463;28;20677;-72
2022/12/19 05:22:14;;;;;;;29.17;11.35;;;3.60;98.10;;;;;;5031947;28;20037;-73
2022/12/19 05:24:40;;;;;;;25.90;11.00;;;3.60;98.00;;;;;;5031696;28;20063;-72
2022/12/19 05:27:06;;;;;;;27.10;11.27;;;3.60;98.30;;;;;;5031197;28;20064;-72
2022/12/19 05:29:33;;;;;;;29.45;12.48;;;3.60;98.20;;;;;;5031371;28;20541;-72
2022/12/19 05:31:59;;;;;;;35.30;13.00;;;3.50;98.20;;;;;;5031972;28;20056;-72
2022/12/19 05:34:24;;;;;;;28.20;11.00;;;3.60;98.30;;;;;;5030205;28;20464;-72
2022/12/19 05:36:50;;;;;;;25.48;10.88;;;3.60;98.50;;;;;;5030075;28;20100;-72
2022/12/19 05:39:16;;;;;;;28.35;11.85;;;3.70;98.50;;;;;;5031293;28;20029;-72
2022/12/19 05:41:41;;;;;;;33.88;13.05;;;3.60;98.50;;;;;;5031508;28;20036;-72
2022/12/19 05:44:08;;;;;;;24.90;11.60;;;3.70;98.60;;;;;;5031802;28;20060;-71
2022/12/19 05:46:34;;;;;;;28.20;12.20;;;3.70;98.80;;;;;;5031133;28;20041;-71
2022/12/19 05:48:59;;;;;;;26.45;11.88;;;3.70;98.70;;;;;;5031139;28;20045;-72
2022/12/19 05:51:25;;;;;;;23.08;10.90;;;3.70;98.70;;;;;;5030984;28;20044;-72
2022/12/19 05:53:51;;;;;;;27.15;12.25;;;3.70;98.90;;;;;;5030898;28;20048;-72
2022/12/19 05:56:19;;;;;;;23.75;10.57;;;3.70;99.10;;;;;;5031798;28;20115;-71
2022/12/19 05:58:45;;;;;;;24.73;11.35;;;3.70;99.10;;;;;;5026982;28;20045;-72
2022/12/19 06:01:14;;;;;;;26.92;10.93;;;3.70;99.20;;;;;;5026757;28;20482;-72
2022/12/19 06:03:43;;;;;;;27.92;12.57;;;3.70;99.30;;;;;;5030868;28;20422;-72
2022/12/19 06:06:12;;;;;;;28.27;11.68;;;3.80;99.40;;;;;;5030853;28;20459;-72
2022/12/19 06:08:38;;;;;;;28.25;11.43;;;3.70;99.40;;;;;;5031028;28;20037;-72
2022/12/19 06:11:05;;;;;;;29.67;12.35;;;3.80;99.80;;;;;;5030587;28;20029;-73
2022/12/19 06:13:31;;;;;;;30.63;12.02;;;3.70;99.70;;;;;;5030166;28;20061;-72
2022/12/19 06:16:15;;;;;;;24.48;10.95;;;3.70;99.60;;;;;;5030670;28;20033;-72
2022/12/19 06:18:42;;;;;;;28.27;12.20;;;3.80;99.70;;;;;;5030848;28;20091;-71
2022/12/19 06:21:11;;;;;;;26.15;12.32;;;3.70;99.70;;;;;;5029683;28;20057;-71
2022/12/19 06:23:37;;;;;;;27.35;11.73;;;3.70;99.90;;;;;;5030869;28;20033;-72
2022/12/19 06:26:04;;;;;;;29.15;12.70;;;3.80;99.90;;;;;;5030974;28;20511;-73
2022/12/19 06:28:31;;;;;;;28.40;12.05;;;3.70;99.80;;;;;;5030576;28;20033;-72
2022/12/19 06:30:58;;;;;;;27.58;11.77;;;3.70;99.90;;;;;;5034194;28;20120;-72
2022/12/19 06:33:24;;;;;;;30.50;12.68;;;3.80;99.90;;;;;;5033626;28;20037;-72
2022/12/19 06:36:01;;;;;;;27.88;11.65;;;3.80;99.90;;;;;;5034420;28;20072;-72
2022/12/19 06:38:28;;;;;;;25.30;11.90;;;3.80;99.90;;;;;;5034249;28;20041;-73
2022/12/19 06:43:38;;;;;;;29.73;12.15;;;3.90;99.90;;;;;;5034522;28;20072;-73
2022/12/19 06:46:04;;;;;;;31.48;13.65;;;3.90;99.90;;;;;;5034576;28;20061;-72
2022/12/19 06:48:32;;;;;;;29.23;13.13;;;3.90;99.90;;;;;;5033340;28;20037;-73
2022/12/19 06:50:58;;;;;;;;;;;3.90;99.90;;;;;;5034904;28;20116;-73
2022/12/19 06:53:24;;;;;;;28.58;12.10;;;3.90;99.90;;;;;;5034007;28;20012;-73
2022/12/19 06:55:52;;;;;;;28.52;12.13;;;3.90;99.90;;;;;;5033472;28;20358;-72
2022/12/19 06:58:17;;;;;;;28.05;12.75;;;3.90;99.90;;;;;;5034438;28;20227;-73
2022/12/19 07:00:43;;;;;;;30.92;13.63;;;3.90;99.90;;;;;;5034096;28;20033;-72
2022/12/19 07:03:12;;;;;;;28.58;12.73;;;3.90;99.90;;;;;;5034275;28;20061;-73
2022/12/19 07:05:39;;;;;;;29.33;12.45;;;3.90;99.90;;;;;;5033967;28;20034;-72
2022/12/19 07:08:06;;;;;;;29.52;12.35;;;3.90;99.90;;;;;;5034446;28;20099;-73
2022/12/19 07:10:32;;;;;;;33.03;12.90;;;3.90;99.90;;;;;;5013910;28;20038;-72
2022/12/19 07:12:58;;;;;;;31.05;13.02;;;4.00;99.90;;;;;;5012717;28;20060;-72
2022/12/19 07:15:24;;;;;;;32.25;13.25;;;4.00;99.90;;;;;;5014268;28;20037;-72
2022/12/19 07:17:49;;;;;;;33.92;14.10;;;3.90;99.90;;;;;;5013950;28;20029;-72
2022/12/19 07:20:17;;;;;;;30.88;14.02;;;4.00;99.90;;;;;;5014620;28;20037;-73
2022/12/19 07:22:43;;;;;;;33.05;13.50;;;3.90;99.90;;;;;;5014341;28;20392;-73
2022/12/19 07:25:09;;;;;;;29.75;12.38;;;3.90;99.90;;;;;;5012950;28;20373;-74
2022/12/19 07:27:35;;;;;;;30.73;12.93;;;4.00;99.90;;;;;;5014084;28;20037;-72
2022/12/19 07:30:02;;;;;;;31.65;14.35;;;4.00;99.90;;;;;;5012649;28;20068;-76
2022/12/19 07:32:27;;;;;;;33.13;13.65;;;4.20;99.90;;;;;;5021959;28;20051;-73
2022/12/19 07:34:53;;;;;;;30.92;13.70;;;4.00;99.90;;;;;;5034245;28;20423;-76
2022/12/19 07:37:20;;;;;;;27.83;13.60;;;4.00;99.90;;;;;;5032491;28;20033;-75
2022/12/19 07:39:46;;;;;;;26.98;12.90;;;4.00;99.90;;;;;;5033758;28;20037;-75
2022/12/19 07:42:12;;;;;;;33.65;14.15;;;4.10;99.90;;;;;;5032011;28;20448;-73
2022/12/19 07:44:37;;;;;;;32.10;14.13;;;4.10;99.90;;;;;;5032182;28;20038;-73
2022/12/19 07:47:03;;;;;;;30.42;13.07;;;4.20;99.90;;;;;;5034136;28;20026;-73
2022/12/19 07:49:29;;;;;;;33.10;13.90;;;4.10;99.90;;;;;;5032294;28;20029;-73
2022/12/19 07:51:55;;;;;;;36.70;14.15;;;4.20;99.90;;;;;;5033309;28;20029;-73
2022/12/19 07:54:20;;;;;;;33.13;14.43;;;4.20;99.90;;;;;;5032106;28;20045;-73
2022/12/19 07:56:46;;;;;;;26.63;12.43;;;4.20;99.90;;;;;;5031926;28;20029;-73
2022/12/19 07:59:12;;;;;;;35.33;13.88;;;4.20;99.90;;;;;;5033451;28;20041;-74
2022/12/19 08:01:38;;;;;;;39.83;13.18;;;4.20;99.90;;;;;;5033032;28;20025;-71
2022/12/19 08:04:03;;;;;;;30.40;14.35;;;4.30;99.90;;;;;;5031963;28;20030;-74
2022/12/19 08:06:29;;;;;;;35.95;14.02;;;4.30;99.90;;;;;;5032358;28;20030;-72
2022/12/19 08:08:55;;;;;;;28.65;13.13;;;4.30;99.90;;;;;;5033294;28;20026;-75
2022/12/19 08:11:26;;;;;;;27.83;13.63;;;4.30;99.90;;;;;;5033219;28;20033;-74
2022/12/19 08:13:52;;;;;;;39.25;16.58;;;4.40;99.90;;;;;;5033006;28;20053;-74
2022/12/19 08:16:18;;;;;;;37.92;15.73;;;4.40;99.90;;;;;;5032866;28;20160;-73
2022/12/19 08:18:44;;;;;;;31.52;14.32;;;4.50;99.90;;;;;;5032716;28;20034;-72
2022/12/19 08:21:10;;;;;;;29.58;14.45;;;4.40;99.90;;;;;;5033198;28;20456;-77
2022/12/19 08:23:37;;;;;;;38.40;14.10;;;4.50;99.90;;;;;;5032856;28;20112;-75
2022/12/19 08:26:10;;;;;;;30.77;13.67;;;4.50;99.90;;;;;;5033118;28;20459;-77
2022/12/19 08:28:36;;;;;;;34.92;14.32;;;4.70;99.90;;;;;;5033035;28;20033;-74
2022/12/19 08:31:11;;;;;;;43.95;17.95;;;4.40;99.90;;;;;;5033357;28;20033;-72
2022/12/19 08:33:37;;;;;;;34.28;15.43;;;4.50;99.90;;;;;;5033837;28;20029;-77
2022/12/19 08:36:07;;;;;;;29.05;13.75;;;4.50;99.90;;;;;;5033365;28;20036;-71
2022/12/19 08:38:33;;;;;;;32.90;14.20;;;4.50;99.90;;;;;;5032534;28;20091;-72
2022/12/19 08:40:59;;;;;;;35.88;14.10;;;4.60;99.90;;;;;;5032939;28;20018;-77
2022/12/19 08:43:26;;;;;;;34.03;14.35;;;4.60;99.90;;;;;;5032750;28;20029;-80
2022/12/19 08:45:52;;;;;;;35.00;13.88;;;4.60;99.90;;;;;;5032409;28;20129;-73
2022/12/19 08:48:18;;;;;;;31.23;13.55;;;4.60;99.90;;;;;;5032282;28;20120;-74
2022/12/19 08:50:55;;;;;;;32.00;14.60;;;4.70;99.90;;;;;;5031464;28;20029;-73
2022/12/19 08:53:22;;;;;;;29.25;13.55;;;4.70;99.90;;;;;;5032250;28;20502;-76
2022/12/19 08:55:56;;;;;;;34.42;15.88;;;4.70;99.90;;;;;;5031382;28;20021;-72
2022/12/19 08:58:23;;;;;;;31.48;14.10;;;4.70;99.90;;;;;;5030973;28;20079;-75
2022/12/19 09:00:48;;;;;;;29.90;13.20;;;4.70;99.90;;;;;;5031179;28;20044;-76
2022/12/19 09:03:14;;;;;;;33.88;14.57;;;4.70;99.90;;;;;;5032290;28;20025;-74
2022/12/19 09:05:40;;;;;;;27.55;12.65;;;4.80;99.90;;;;;;5032567;28;20391;-73
2022/12/19 09:08:06;;;;;;;30.38;13.18;;;4.80;99.90;;;;;;5032666;28;20410;-76
2022/12/19 09:10:35;;;;;;;29.35;13.68;;;4.90;99.90;;;;;;5030598;28;20030;-75
2022/12/19 09:13:00;;;;;;;28.98;13.00;;;4.80;99.90;;;;;;5031603;28;20050;-77
2022/12/19 09:15:26;;;;;;;31.20;14.02;;;4.90;99.90;;;;;;5030753;28;20037;-76
2022/12/19 09:17:52;;;;;;;26.58;12.82;;;4.90;99.90;;;;;;5031673;28;20483;-78
2022/12/19 09:20:17;;;;;;;26.35;12.70;;;5.20;99.90;;;;;;5031861;28;20033;-75
2022/12/19 09:22:43;;;;;;;30.92;13.52;;;5.00;99.90;;;;;;5032009;28;20025;-79
2022/12/19 09:25:09;;;;;;;25.50;12.90;;;5.00;99.90;;;;;;5030639;28;20464;-77
2022/12/19 09:27:35;;;;;;;24.45;11.45;;;5.00;99.90;;;;;;5031917;28;20033;-74
2022/12/19 09:30:01;;;;;;;23.63;12.18;;;5.10;99.90;;;;;;5030712;28;20034;-74
2022/12/19 09:32:27;;;;;;;25.70;12.60;;;5.10;99.90;;;;;;5031507;28;20053;-75
2022/12/19 09:34:52;;;;;;;24.75;11.68;;;5.20;99.90;;;;;;5031903;28;20079;-76
2022/12/19 09:37:18;;;;;;;24.50;12.23;;;5.20;99.90;;;;;;5031887;28;20091;-77
2022/12/19 09:39:45;;;;;;;20.30;11.23;;;5.10;99.90;;;;;;5032601;28;20041;-76
2022/12/19 09:42:53;;;;;;;26.05;13.10;;;5.20;99.90;;;;;;5030846;28;20112;-74
2022/12/19 09:45:24;;;;;;;21.52;11.55;;;5.30;99.90;;;;;;5031235;28;20160;-76
2022/12/19 09:47:54;;;;;;;23.98;11.30;;;5.30;99.90;;;;;;5029873;28;20112;-76
2022/12/19 09:50:34;;;;;;;20.83;10.23;;;5.30;99.90;;;;;;5031101;28;20147;-74
2022/12/19 09:53:06;;;;;;;21.63;9.95;;;5.30;99.90;;;;;;5031643;28;20101;-75
2022/12/19 09:55:35;;;;;;;22.45;10.07;;;5.40;99.90;;;;;;5031215;28;20105;-79
2022/12/19 09:58:31;;;;;;;21.27;10.43;;;5.40;99.90;;;;;;5031067;28;20239;-79
2022/12/19 10:01:00;;;;;;;18.38;9.63;;;5.40;99.90;;;;;;5030004;28;20029;-78
2022/12/19 10:03:31;;;;;;;18.88;10.27;;;5.30;99.90;;;;;;5029952;28;20037;-76
2022/12/19 10:06:17;;;;;;;19.60;10.07;;;5.40;99.90;;;;;;5029470;28;20115;-75
2022/12/19 10:08:44;;;;;;;22.13;9.88;;;5.40;99.90;;;;;;5031262;28;20029;-77
2022/12/19 10:11:24;;;;;;;21.58;9.40;;;5.50;99.90;;;;;;5030737;28;20478;-78
2022/12/19 10:14:15;;;;;;;18.58;9.73;;;5.50;99.90;;;;;;5031141;28;20122;-75
2022/12/19 10:17:12;;;;;;;17.67;8.98;;;5.60;99.90;;;;;;5030711;28;20025;-78
2022/12/19 10:20:16;;;;;;;19.40;8.65;;;5.60;99.90;;;;;;5031130;28;20026;-76
2022/12/19 10:22:48;;;;;;;19.08;9.35;;;5.70;99.90;;;;;;5029482;28;20061;-80
2022/12/19 10:25:39;;;;;;;16.48;8.80;;;5.70;99.90;;;;;;5030507;28;20041;-76
2022/12/19 10:28:19;;;;;;;20.70;9.52;;;5.70;99.90;;;;;;5030376;28;20030;-80
2022/12/19 10:31:05;;;;;;;18.88;9.15;;;5.60;99.90;;;;;;5029045;28;20022;-80
2022/12/19 10:33:36;;;;;;;24.02;10.80;;;5.70;99.90;;;;;;5028659;28;20120;-78
2022/12/19 10:36:09;;;;;;;20.38;9.60;;;5.80;99.90;;;;;;5030157;28;20026;-80
2022/12/19 10:38:55;;;;;;;18.95;9.75;;;5.80;99.90;;;;;;5029071;28;20021;-79
2022/12/19 10:41:24;;;;;;;19.67;11.00;;;5.80;99.90;;;;;;5030225;28;20056;-81
2022/12/19 10:44:06;;;;;;;18.77;10.15;;;5.90;99.90;;;;;;5030763;28;20018;-79
2022/12/19 10:46:45;;;;;;;21.85;11.18;;;5.90;99.90;;;;;;5030531;28;20049;-80
2022/12/19 10:49:13;;;;;;;18.98;9.85;;;5.90;99.90;;;;;;5029360;28;20194;-79
2022/12/19 10:51:40;;;;;;;20.33;11.00;;;6.10;99.90;;;;;;5030261;28;20034;-80
2022/12/19 10:54:06;;;;;;;23.08;11.85;;;5.90;99.90;;;;;;5030217;28;20064;-80
2022/12/19 10:56:32;;;;;;;21.23;10.85;;;6.00;99.90;;;;;;5030510;28;20448;-74
2022/12/19 10:59:00;;;;;;;30.17;14.15;;;6.10;99.90;;;;;;5031222;28;20033;-74
2022/12/19 11:01:28;;;;;;;26.58;11.23;;;6.10;99.90;;;;;;5030486;28;20457;-75
2022/12/19 11:04:15;;;;;;;21.48;11.07;;;6.10;99.90;;;;;;5030301;28;20030;-76
2022/12/19 11:06:40;;;;;;;20.67;10.27;;;6.20;99.90;;;;;;5030043;28;20025;-76
2022/12/19 11:09:26;;;;;;;26.35;12.68;;;6.20;99.90;;;;;;5030187;28;20033;-76
2022/12/19 11:12:14;;;;;;;21.60;10.55;;;6.20;99.90;;;;;;5030211;28;20026;-75
2022/12/19 11:14:41;;;;;;;;;;;6.30;99.90;;;;;;5029530;28;20557;-74
2022/12/19 11:17:33;;;;;;;22.67;11.27;;;6.30;99.90;;;;;;5034020;28;19905;-76
2022/12/19 11:20:13;;;;;;;25.00;11.25;;;6.30;99.90;;;;;;5033617;28;20037;-74
2022/12/19 11:22:47;;;;;;;20.83;11.85;;;6.30;99.90;;;;;;5033891;28;20038;-75
2022/12/19 11:25:22;;;;;;;24.58;11.82;;;6.50;99.90;;;;;;5032512;28;20068;-79
2022/12/19 11:27:49;;;;;;;24.67;11.85;;;6.50;99.90;;;;;;5033833;28;20033;-73
2022/12/19 11:30:14;;;;;;;25.05;12.00;;;6.50;99.90;;;;;;5032512;28;20030;-78
2022/12/19 11:32:42;;;;;;;27.92;13.40;;;6.60;99.90;;;;;;5032164;28;20083;-78
2022/12/19 11:35:19;;;;;;;;;;;6.70;99.90;;;;;;5033363;28;20036;-79
2022/12/19 11:37:51;;;;;;;22.92;12.15;;;6.70;99.90;;;;;;5033850;28;20004;-77
2022/12/19 11:40:37;;;;;;;22.75;11.63;;;6.80;99.90;;;;;;5033656;28;20087;-79
2022/12/19 11:43:11;;;;;;;27.50;12.98;;;6.80;99.90;;;;;;5033810;28;20539;-80
2022/12/19 11:45:55;;;;;;;27.77;13.05;;;6.80;99.90;;;;;;5033321;28;20033;-74
2022/12/19 11:48:40;;;;;;;26.98;13.13;;;6.90;99.90;;;;;;5033272;28;20257;-78
2022/12/19 11:51:24;;;;;;;34.13;15.27;;;6.90;99.90;;;;;;5033285;28;20030;-78
2022/12/19 11:54:29;;;;;;;26.00;13.18;;;6.90;99.90;;;;;;5033248;28;20095;-70
2022/12/19 11:56:55;;;;;;;25.88;13.13;;;6.90;99.90;;;;;;5033647;28;20124;-82
2022/12/19 11:59:30;;;;;;;29.05;13.30;;;7.00;99.90;;;;;;5033191;28;20036;-79
2022/12/19 12:02:08;;;;;;;26.92;13.07;;;7.00;99.90;;;;;;5032767;28;20240;-78
2022/12/19 12:04:40;;;;;;;26.02;12.70;;;6.90;99.90;;;;;;5032246;28;20053;-83
2022/12/19 12:07:07;;;;;;;27.77;14.48;;;7.00;99.90;;;;;;5033648;28;20467;-76
2022/12/19 12:09:43;;;;;;;27.50;13.15;;;7.00;99.90;;;;;;5033061;28;20030;-77
2022/12/19 12:12:20;;;;;;;26.25;13.68;;;7.00;99.90;;;;;;5033096;28;20029;-74
2022/12/19 12:15:07;;;;;;;25.65;12.55;;;7.00;99.90;;;;;;5033048;28;20171;-76
2022/12/19 12:18:03;;;;;;;27.95;13.50;;;7.00;99.90;;;;;;5031837;28;20088;-81
2022/12/19 12:20:51;;;;;;;25.88;13.15;;;7.00;99.90;;;;;;5031647;28;20033;-74
2022/12/19 12:23:42;;;;;;;24.95;12.57;;;7.10;99.90;;;;;;5034560;28;20144;-76
2022/12/19 12:26:15;;;;;;;26.65;12.93;;;7.10;99.90;;;;;;5031935;28;20152;-75
2022/12/19 12:28:51;;;;;;;31.17;16.30;;;7.10;99.90;;;;;;5032050;28;20033;-80
2022/12/19 12:31:29;;;;;;;26.23;13.57;;;7.10;99.90;;;;;;5032575;28;20025;-79
2022/12/19 12:34:10;;;;;;;31.08;13.77;;;7.10;99.90;;;;;;5033038;28;20037;-82
2022/12/19 12:36:41;;;;;;;27.85;13.65;;;7.20;99.90;;;;;;5032879;28;20075;-78
2022/12/19 12:39:22;;;;;;;28.90;13.23;;;7.40;99.90;;;;;;5032113;28;20172;-79
2022/12/19 12:42:09;;;;;;;29.00;14.00;;;7.20;99.90;;;;;;5032922;28;20037;-81
2022/12/19 12:44:40;;;;;;;26.23;12.90;;;7.30;99.90;;;;;;5031937;28;20036;-79
2022/12/19 12:47:13;;;;;;;29.40;14.23;;;7.20;99.90;;;;;;5032046;28;20022;-76
2022/12/19 12:49:47;;;;;;;24.25;12.30;;;7.20;99.90;;;;;;5032489;28;20094;-78
2022/12/19 12:52:18;;;;;;;28.38;13.70;;;7.30;99.90;;;;;;5033857;28;20053;-81
2022/12/19 12:54:47;;;;;;;31.05;14.68;;;7.30;99.90;;;;;;5032580;28;20168;-85
2022/12/19 12:57:19;;;;;;;26.92;13.48;;;7.40;99.90;;;;;;5032618;28;20037;-78
2022/12/19 12:59:46;;;;;;;27.13;13.23;;;7.40;99.90;;;;;;5032932;28;20035;-78
2022/12/19 13:02:23;;;;;;;25.63;12.53;;;7.40;99.90;;;;;;5033669;28;20033;-79
2022/12/19 13:04:59;;;;;;;26.75;13.15;;;7.50;99.90;;;;;;5032166;28;20038;-79
2022/12/19 13:07:27;;;;;;;27.92;13.15;;;7.50;99.90;;;;;;5031466;28;20164;-79